createdAt,value
2019-05-02T00:00:25.167Z,1.10
2019-05-02T00:02:51.551Z,1.10
2019-05-02T00:05:17.882Z,1.27
2019-05-02T00:07:44.218Z,0.93
2019-05-02T00:10:10.592Z,1.10
2019-05-02T00:12:36.926Z,0.93
2019-05-02T00:15:03.559Z,1.10
2019-05-02T00:17:29.598Z,1.20
2019-05-02T00:19:55.957Z,1.00
2019-05-02T00:22:22.275Z,1.10
2019-05-02T00:24:48.642Z,1.07
2019-05-02T00:27:14.934Z,1.10
2019-05-02T00:32:07.597Z,1.10
2019-05-02T00:34:33.933Z,1.10
2019-05-02T00:37:00.270Z,1.03
2019-05-02T00:39:26.600Z,1.03
2019-05-02T00:41:52.963Z,1.10
2019-05-02T00:44:19.293Z,1.00
2019-05-02T00:46:45.614Z,1.20
2019-05-02T00:49:11.959Z,1.03
2019-05-02T00:51:38.296Z,1.03
2019-05-02T00:54:04.633Z,1.20
2019-05-02T00:56:30.967Z,1.10
2019-05-02T00:58:57.371Z,1.10
2019-05-02T01:01:24.232Z,1.03
2019-05-02T01:03:51.992Z,1.10
2019-05-02T01:06:16.427Z,1.00
2019-05-02T01:08:42.725Z,1.00
2019-05-02T01:11:09.056Z,0.93
2019-05-02T01:13:35.395Z,1.00
2019-05-02T01:16:01.722Z,0.90
2019-05-02T01:18:28.060Z,1.00
2019-05-02T01:20:58.234Z,0.90
2019-05-02T01:23:23.094Z,1.00
2019-05-02T01:25:52.427Z,1.00
2019-05-02T01:28:17.508Z,1.00
2019-05-02T01:30:42.463Z,1.00
2019-05-02T01:33:06.694Z,1.00
2019-05-02T01:35:32.772Z,1.00
2019-05-02T01:37:58.917Z,1.10
2019-05-02T01:40:25.288Z,1.17
2019-05-02T01:42:51.627Z,1.00
2019-05-02T01:47:44.308Z,0.90
2019-05-02T01:50:10.667Z,1.00
2019-05-02T01:52:37.036Z,0.80
2019-05-02T01:55:03.330Z,0.90
2019-05-02T01:57:29.657Z,1.10
2019-05-02T01:59:56.067Z,0.90
2019-05-02T02:02:22.395Z,1.00
2019-05-02T02:04:52.149Z,1.00
2019-05-02T02:09:43.952Z,1.00
2019-05-02T02:12:09.794Z,0.90
2019-05-02T02:14:34.177Z,0.90
2019-05-02T02:17:00.504Z,1.00
2019-05-02T02:19:26.845Z,1.10
2019-05-02T02:21:57.311Z,1.00
2019-05-02T02:24:21.160Z,0.87
2019-05-02T02:26:48.146Z,1.00
2019-05-02T02:29:12.209Z,1.10
2019-05-02T02:31:39.733Z,1.00
2019-05-02T02:34:04.888Z,1.00
2019-05-02T02:36:34.523Z,0.90
2019-05-02T02:38:57.574Z,1.00
2019-05-02T02:41:23.965Z,1.00
2019-05-02T02:43:54.732Z,1.00
2019-05-02T02:46:16.634Z,1.00
2019-05-02T02:51:09.311Z,0.90
2019-05-02T02:53:35.655Z,1.20
2019-05-02T02:56:03.907Z,1.10
2019-05-02T02:58:28.372Z,1.20
2019-05-02T03:00:54.714Z,1.03
2019-05-02T03:03:27.621Z,1.10
2019-05-02T03:05:47.432Z,1.20
2019-05-02T03:08:13.759Z,1.00
2019-05-02T03:10:45.121Z,1.03
2019-05-02T03:13:06.462Z,1.13
2019-05-02T03:15:32.806Z,1.00
2019-05-02T03:18:00.376Z,1.00
2019-05-02T03:20:25.515Z,1.13
2019-05-02T03:22:51.860Z,0.97
2019-05-02T03:25:26.971Z,1.10
2019-05-02T03:27:44.622Z,0.90
2019-05-02T03:30:29.776Z,1.20
2019-05-02T03:32:37.341Z,1.00
2019-05-02T03:35:03.721Z,1.10
2019-05-02T03:37:30.018Z,0.97
2019-05-02T03:39:57.831Z,1.20
2019-05-02T03:42:22.748Z,1.10
2019-05-02T03:44:55.759Z,1.10
2019-05-02T03:47:15.421Z,1.27
2019-05-02T03:49:48.573Z,1.10
2019-05-02T03:52:08.129Z,1.10
2019-05-02T03:54:34.421Z,1.20
2019-05-02T03:57:00.794Z,1.20
2019-05-02T04:01:53.481Z,1.40
2019-05-02T04:04:20.729Z,1.40
2019-05-02T04:06:46.192Z,1.13
2019-05-02T04:09:12.536Z,1.20
2019-05-02T04:11:40.915Z,1.50
2019-05-02T04:14:15.145Z,1.60
2019-05-02T04:16:31.588Z,1.00
2019-05-02T04:18:58.333Z,1.07
2019-05-02T04:21:26.173Z,1.00
2019-05-02T04:23:50.571Z,1.20
2019-05-02T04:26:16.923Z,1.20
2019-05-02T04:28:45.647Z,1.03
2019-05-02T04:31:09.618Z,1.30
2019-05-02T04:33:36.609Z,1.20
2019-05-02T04:36:13.436Z,1.20
2019-05-02T04:38:39.142Z,1.10
2019-05-02T04:40:54.999Z,1.17
2019-05-02T04:43:21.375Z,1.20
2019-05-02T04:45:55.990Z,1.60
2019-05-02T04:48:14.078Z,1.53
2019-05-02T04:50:40.413Z,1.20
2019-05-02T04:53:08.594Z,1.13
2019-05-02T04:55:33.552Z,1.40
2019-05-02T04:58:01.777Z,1.10
2019-05-02T05:00:28.379Z,1.40
2019-05-02T05:02:53.294Z,1.33
2019-05-02T05:05:25.769Z,1.07
2019-05-02T05:07:46.557Z,1.10
2019-05-02T05:10:11.212Z,1.00
2019-05-02T05:12:41.669Z,1.20
2019-05-02T05:15:03.873Z,1.20
2019-05-02T05:17:33.010Z,1.20
2019-05-02T05:19:57.361Z,1.23
2019-05-02T05:22:22.960Z,1.17
2019-05-02T05:27:18.957Z,1.40
2019-05-02T05:29:42.006Z,1.30
2019-05-02T05:32:10.191Z,1.30
2019-05-02T05:34:34.714Z,1.30
2019-05-02T05:37:03.791Z,1.10
2019-05-02T05:39:28.204Z,1.30
2019-05-02T05:41:53.697Z,1.00
2019-05-02T05:44:23.416Z,1.20
2019-05-02T05:46:49.298Z,1.30
2019-05-02T05:49:20.018Z,1.10
2019-05-02T05:51:39.420Z,1.40
2019-05-02T05:54:07.719Z,1.37
2019-05-02T05:56:39.728Z,1.67
2019-05-02T05:58:59.623Z,1.17
2019-05-02T06:01:32.372Z,1.27
2019-05-02T06:06:22.767Z,1.40
2019-05-02T06:08:49.127Z,1.37
2019-05-02T06:11:15.009Z,1.20
2019-05-02T06:13:38.205Z,1.50
2019-05-02T06:16:04.057Z,1.57
2019-05-02T06:18:30.392Z,1.20
2019-05-02T06:20:58.398Z,1.40
2019-05-02T06:23:25.327Z,1.60
2019-05-02T06:25:51.668Z,1.30
2019-05-02T06:28:17.991Z,1.20
2019-05-02T06:30:44.373Z,1.30
2019-05-02T06:33:10.707Z,1.17
2019-05-02T06:35:37.119Z,1.50
2019-05-02T06:38:03.467Z,1.90
2019-05-02T06:40:29.882Z,1.57
2019-05-02T06:42:56.201Z,1.53
2019-05-02T06:45:22.642Z,1.90
2019-05-02T06:50:15.318Z,1.50
2019-05-02T06:52:41.601Z,1.53
2019-05-02T06:55:07.920Z,1.20
2019-05-02T06:57:34.237Z,1.70
2019-05-02T07:00:00.639Z,1.57
2019-05-02T07:02:28.301Z,1.30
2019-05-02T07:04:54.727Z,1.43
2019-05-02T07:07:19.743Z,1.50
2019-05-02T07:12:14.817Z,1.57
2019-05-02T07:14:38.717Z,1.33
2019-05-02T07:17:05.833Z,1.37
2019-05-02T07:19:31.478Z,1.37
2019-05-02T07:21:58.550Z,1.53
2019-05-02T07:24:25.305Z,1.73
2019-05-02T07:26:52.100Z,1.60
2019-05-02T07:31:47.680Z,1.50
2019-05-02T07:34:13.007Z,1.67
2019-05-02T07:36:36.747Z,1.50
2019-05-02T07:39:05.115Z,1.67
2019-05-02T07:41:30.185Z,1.40
2019-05-02T07:43:56.246Z,1.70
2019-05-02T07:46:22.266Z,1.77
2019-05-02T07:48:48.963Z,1.57
2019-05-02T07:53:44.436Z,1.40
2019-05-02T07:56:06.826Z,1.30
2019-05-02T07:58:33.175Z,1.70
2019-05-02T08:00:59.544Z,1.77
2019-05-02T08:03:29.326Z,1.53
2019-05-02T08:05:54.463Z,1.50
2019-05-02T08:08:18.541Z,1.87
2019-05-02T08:10:44.880Z,1.53
2019-05-02T08:15:37.521Z,1.63
2019-05-02T08:18:03.879Z,1.50
2019-05-02T08:20:30.262Z,2.57
2019-05-02T08:22:56.634Z,1.37
2019-05-02T08:25:22.965Z,1.23
2019-05-02T08:27:49.297Z,1.57
2019-05-02T08:30:15.988Z,1.60
2019-05-02T08:32:42.313Z,1.50
2019-05-02T08:37:35.379Z,1.60
2019-05-02T08:40:05.409Z,1.50
2019-05-02T08:42:32.199Z,1.73
2019-05-02T08:44:56.233Z,1.30
2019-05-02T08:47:23.758Z,1.60
2019-05-02T08:49:49.395Z,1.40
2019-05-02T08:52:12.997Z,1.30
2019-05-02T08:54:39.331Z,1.40
2019-05-02T08:59:32.037Z,1.50
2019-05-02T09:01:58.373Z,1.47
2019-05-02T09:04:29.051Z,1.40
2019-05-02T09:06:53.209Z,1.70
2019-05-02T09:09:17.538Z,1.63
2019-05-02T09:11:48.788Z,1.60
2019-05-02T09:14:12.458Z,1.80
2019-05-02T09:16:36.520Z,1.40
2019-05-02T09:19:02.940Z,1.30
2019-05-02T09:21:34.228Z,1.77
2019-05-02T09:23:55.555Z,1.80
2019-05-02T09:26:33.261Z,1.37
2019-05-02T09:28:48.199Z,2.70
2019-05-02T09:31:14.588Z,1.77
2019-05-02T09:33:42.449Z,1.50
2019-05-02T09:36:07.257Z,1.77
2019-05-02T09:38:33.581Z,1.60
2019-05-02T09:41:13.827Z,1.33
2019-05-02T09:43:29.216Z,1.60
2019-05-02T09:45:52.631Z,1.50
2019-05-02T09:48:22.701Z,1.40
2019-05-02T09:50:45.316Z,1.30
2019-05-02T09:53:20.367Z,1.37
2019-05-02T09:55:42.322Z,1.30
2019-05-02T09:58:04.367Z,1.30
2019-05-02T10:00:32.367Z,1.93
2019-05-02T10:02:57.026Z,1.60
2019-05-02T10:05:23.360Z,1.40
2019-05-02T10:07:49.694Z,1.60
2019-05-02T10:10:16.018Z,1.50
2019-05-02T10:12:42.754Z,1.50
2019-05-02T10:15:08.698Z,1.47
2019-05-02T10:17:37.462Z,1.43
2019-05-02T10:22:32.317Z,1.70
2019-05-02T10:24:54.094Z,2.10
2019-05-02T10:27:21.671Z,2.17
2019-05-02T10:29:46.789Z,2.30
2019-05-02T10:32:16.663Z,1.67
2019-05-02T10:34:39.528Z,2.10
2019-05-02T10:37:05.919Z,2.13
2019-05-02T10:39:33.958Z,2.23
2019-05-02T10:41:58.546Z,1.90
2019-05-02T10:44:27.224Z,2.80
2019-05-02T10:46:52.322Z,2.50
2019-05-02T10:49:17.582Z,2.30
2019-05-02T10:51:49.383Z,2.40
2019-05-02T10:54:12.015Z,2.17
2019-05-02T10:56:36.627Z,2.93
2019-05-02T10:59:02.983Z,2.20
2019-05-02T11:01:29.319Z,2.00
2019-05-02T11:03:55.737Z,1.77
2019-05-02T11:06:22.336Z,2.10
2019-05-02T11:08:48.417Z,2.10
2019-05-02T11:11:14.764Z,2.23
2019-05-02T11:13:42.495Z,2.10
2019-05-02T11:16:07.490Z,2.30
2019-05-02T11:18:42.376Z,2.27
2019-05-02T11:21:04.363Z,2.40
2019-05-02T11:23:26.589Z,2.47
2019-05-02T11:25:52.943Z,2.30
2019-05-02T11:28:19.273Z,3.00
2019-05-02T11:30:45.670Z,2.00
2019-05-02T11:33:13.446Z,2.70
2019-05-02T11:38:14.075Z,2.07
2019-05-02T11:40:39.964Z,2.63
2019-05-02T11:43:06.898Z,2.37
2019-05-02T11:45:32.596Z,2.43
2019-05-02T11:48:03.394Z,2.20
2019-05-02T11:50:26.628Z,2.00
2019-05-02T11:52:52.313Z,2.47
2019-05-02T11:55:19.083Z,2.30
2019-05-02T11:57:44.329Z,2.00
2019-05-02T12:00:12.483Z,1.90
2019-05-02T12:02:37.032Z,2.20
2019-05-02T12:05:03.405Z,2.10
2019-05-02T12:07:29.750Z,2.10
2019-05-02T12:09:57.237Z,1.80
2019-05-02T12:12:22.728Z,2.03
2019-05-02T12:14:48.784Z,2.33
2019-05-02T12:17:15.158Z,2.20
2019-05-02T12:19:42.560Z,2.10
2019-05-02T12:22:12.767Z,2.47
2019-05-02T12:24:36.374Z,1.70
2019-05-02T12:27:02.429Z,1.90
2019-05-02T12:29:26.935Z,2.10
2019-05-02T12:31:56.413Z,1.87
2019-05-02T12:34:21.599Z,1.90
2019-05-02T12:36:45.910Z,1.87
2019-05-02T12:39:12.688Z,1.80
2019-05-02T12:41:38.669Z,1.60
2019-05-02T12:44:05.025Z,1.47
2019-05-02T12:46:31.847Z,2.30
2019-05-02T12:48:57.800Z,1.70
2019-05-02T12:51:24.186Z,2.13
2019-05-02T12:53:52.642Z,1.80
2019-05-02T12:58:43.246Z,1.63
2019-05-02T13:01:09.615Z,1.30
2019-05-02T13:03:35.943Z,1.70
2019-05-02T13:06:03.044Z,1.33
2019-05-02T13:08:28.682Z,1.70
2019-05-02T13:11:01.926Z,1.77
2019-05-02T13:13:21.815Z,1.50
2019-05-02T13:15:47.679Z,1.50
2019-05-02T13:20:41.752Z,1.80
2019-05-02T13:23:06.691Z,1.43
2019-05-02T13:25:36.922Z,1.60
2019-05-02T13:27:59.349Z,1.60
2019-05-02T13:30:25.728Z,1.40
2019-05-02T13:32:53.755Z,1.53
2019-05-02T13:35:18.402Z,1.60
2019-05-02T13:37:44.766Z,1.47
2019-05-02T13:40:12.009Z,1.53
2019-05-02T13:42:37.421Z,1.60
2019-05-02T13:45:03.744Z,1.73
2019-05-02T13:47:30.126Z,1.87
2019-05-02T13:50:00.483Z,1.77
2019-05-02T13:52:22.779Z,1.60
2019-05-02T13:54:49.103Z,1.70
2019-05-02T13:57:15.478Z,1.77
2019-05-02T13:59:41.813Z,1.30
2019-05-02T14:02:08.130Z,1.33
2019-05-02T14:04:34.467Z,1.70
2019-05-02T14:07:02.810Z,1.43
2019-05-02T14:11:53.614Z,1.50
2019-05-02T14:14:19.970Z,1.60
2019-05-02T14:16:46.325Z,1.40
2019-05-02T14:19:12.759Z,1.67
2019-05-02T14:21:39.131Z,1.57
2019-05-02T14:24:05.460Z,1.70
2019-05-02T14:26:33.219Z,1.57
2019-05-02T14:28:58.209Z,1.30
2019-05-02T14:33:52.369Z,1.70
2019-05-02T14:36:17.288Z,1.63
2019-05-02T14:38:43.607Z,1.53
2019-05-02T14:41:09.937Z,1.80
2019-05-02T14:43:38.253Z,1.70
2019-05-02T14:46:02.924Z,1.73
2019-05-02T14:48:28.993Z,1.90
2019-05-02T14:50:55.327Z,1.50
2019-05-02T14:53:25.336Z,2.03
2019-05-02T14:55:48.048Z,1.63
2019-05-02T14:58:14.386Z,1.60
2019-05-02T15:00:45.879Z,2.00
2019-05-02T15:03:07.045Z,1.60
2019-05-02T15:05:33.379Z,1.80
2019-05-02T15:08:02.513Z,1.60
2019-05-02T15:10:26.140Z,2.00
2019-05-02T15:12:59.778Z,1.67
2019-05-02T15:15:18.899Z,1.70
2019-05-02T15:17:45.275Z,1.80
2019-05-02T15:20:13.039Z,2.07
2019-05-02T15:22:37.934Z,2.10
2019-05-02T15:25:07.941Z,1.93
2019-05-02T15:27:40.211Z,1.67
2019-05-02T15:30:05.144Z,1.87
2019-05-02T15:32:25.418Z,1.70
2019-05-02T15:34:49.744Z,1.60
2019-05-02T15:37:16.941Z,1.40
2019-05-02T15:42:08.772Z,1.67
2019-05-02T15:47:04.582Z,1.50
2019-05-02T15:49:27.821Z,1.93
2019-05-02T15:51:54.150Z,1.60
2019-05-02T15:54:22.577Z,2.07
2019-05-02T15:56:52.555Z,1.93
2019-05-02T15:59:13.416Z,3.03
2019-05-02T16:01:41.257Z,2.53
2019-05-02T16:04:05.916Z,2.60
2019-05-02T16:06:33.918Z,1.73
2019-05-02T16:08:58.711Z,1.80
2019-05-02T16:11:25.054Z,1.87
2019-05-02T16:13:52.528Z,1.83
2019-05-02T16:16:17.735Z,1.97
2019-05-02T16:18:44.092Z,1.90
2019-05-02T16:21:11.913Z,1.70
2019-05-02T16:23:36.838Z,1.40
2019-05-02T16:26:05.894Z,1.57
2019-05-02T16:28:29.470Z,1.80
2019-05-02T16:30:55.882Z,1.80
2019-05-02T16:33:22.264Z,1.70
2019-05-02T16:35:52.855Z,1.70
2019-05-02T16:38:14.940Z,1.60
2019-05-02T16:40:41.918Z,1.40
2019-05-02T16:43:07.614Z,1.60
2019-05-02T16:45:33.953Z,1.60
2019-05-02T16:48:01.409Z,1.37
2019-05-02T16:50:27.656Z,1.50
2019-05-02T16:52:53.275Z,1.30
2019-05-02T16:55:21.072Z,1.30
2019-05-02T16:57:45.741Z,1.40
2019-05-02T17:00:12.071Z,1.30
2019-05-02T17:02:43.534Z,1.40
2019-05-02T17:05:08.299Z,1.40
2019-05-02T17:07:34.796Z,1.40
2019-05-02T17:09:57.453Z,1.30
2019-05-02T17:12:23.870Z,1.77
2019-05-02T17:14:51.567Z,1.37
2019-05-02T17:17:16.550Z,1.50
2019-05-02T17:19:42.918Z,1.43
2019-05-02T17:22:09.244Z,1.30
2019-05-02T17:24:35.567Z,1.13
2019-05-02T17:27:02.551Z,1.77
2019-05-02T17:29:28.331Z,1.40
2019-05-02T17:31:59.111Z,1.50
2019-05-02T17:34:23.066Z,1.40
2019-05-02T17:36:47.376Z,1.50
2019-05-02T17:39:13.695Z,1.60
2019-05-02T17:41:42.257Z,1.60
2019-05-02T17:44:06.367Z,1.40
2019-05-02T17:46:32.727Z,1.53
2019-05-02T17:48:59.058Z,1.60
2019-05-02T17:51:28.283Z,1.50
2019-05-02T17:53:52.366Z,1.60
2019-05-02T17:56:20.950Z,1.57
2019-05-02T17:58:53.031Z,1.50
2019-05-02T18:01:10.793Z,1.63
2019-05-02T18:03:37.123Z,1.50
2019-05-02T18:06:07.478Z,1.33
2019-05-02T18:08:29.822Z,1.40
2019-05-02T18:11:00.064Z,1.60
2019-05-02T18:13:22.871Z,1.50
2019-05-02T18:15:48.883Z,1.47
2019-05-02T18:18:15.216Z,1.53
2019-05-02T18:20:46.389Z,1.70
2019-05-02T18:23:07.891Z,1.47
2019-05-02T18:25:34.275Z,1.30
2019-05-02T18:28:02.284Z,1.40
2019-05-02T18:30:27.119Z,1.60
2019-05-02T18:32:57.725Z,1.63
2019-05-02T18:35:19.625Z,1.60
2019-05-02T18:37:46.941Z,1.50
2019-05-02T18:40:12.360Z,1.80
2019-05-02T18:42:38.741Z,1.70
2019-05-02T18:45:05.144Z,1.50
2019-05-02T18:47:33.358Z,1.40
2019-05-02T18:50:01.885Z,1.37
2019-05-02T18:52:35.714Z,1.70
2019-05-02T18:54:51.740Z,1.50
2019-05-02T18:57:17.076Z,1.50
2019-05-02T18:59:43.390Z,1.70
2019-05-02T19:02:09.740Z,1.60
2019-05-02T19:04:39.566Z,1.80
2019-05-02T19:07:02.945Z,1.60
2019-05-02T19:09:30.458Z,1.80
2019-05-02T19:12:05.034Z,1.60
2019-05-02T19:14:25.098Z,1.60
2019-05-02T19:16:47.877Z,1.70
2019-05-02T19:21:40.562Z,1.53
2019-05-02T19:24:06.916Z,1.70
2019-05-02T19:26:33.256Z,1.90
2019-05-02T19:28:59.594Z,1.73
2019-05-02T19:31:25.922Z,1.80
2019-05-02T19:33:52.759Z,2.03
2019-05-02T19:36:24.473Z,1.80
2019-05-02T19:38:44.997Z,1.60
2019-05-02T19:41:11.710Z,1.53
2019-05-02T19:43:40.476Z,1.80
2019-05-02T19:46:03.982Z,1.60
2019-05-02T19:48:33.126Z,2.10
2019-05-02T19:50:56.666Z,1.80
2019-05-02T19:53:23.081Z,2.00
2019-05-02T19:55:49.326Z,1.70
2019-05-02T19:58:15.652Z,1.80
2019-05-02T20:00:46.068Z,1.97
2019-05-02T20:03:08.357Z,1.80
2019-05-02T20:05:34.650Z,1.93
2019-05-02T20:08:02.532Z,1.73
2019-05-02T20:12:53.940Z,1.77
2019-05-02T20:15:25.431Z,1.87
2019-05-02T20:17:46.721Z,1.50
2019-05-02T20:20:13.052Z,1.80
2019-05-02T20:22:40.942Z,2.07
2019-05-02T20:25:05.792Z,2.00
2019-05-02T20:27:32.994Z,1.77
2019-05-02T20:29:58.470Z,1.90
2019-05-02T20:32:24.796Z,1.90
2019-05-02T20:34:51.131Z,1.90
2019-05-02T20:37:17.554Z,1.80
2019-05-02T20:39:43.906Z,1.60
2019-05-02T20:42:11.982Z,1.70
2019-05-02T20:44:36.551Z,1.90
2019-05-02T20:47:02.992Z,2.00
2019-05-02T20:49:29.332Z,2.23
2019-05-02T20:51:55.667Z,1.90
2019-05-02T20:54:22.033Z,1.73
2019-05-02T20:56:48.370Z,1.93
2019-05-02T20:59:14.823Z,2.00
2019-05-02T21:01:42.899Z,2.03
2019-05-02T21:04:07.472Z,2.00
2019-05-02T21:06:40.812Z,1.87
2019-05-02T21:09:02.173Z,1.87
2019-05-02T21:11:26.582Z,1.80
2019-05-02T21:13:53.015Z,2.20
2019-05-02T21:16:19.316Z,2.07
2019-05-02T21:18:45.663Z,2.10
2019-05-02T21:21:12.615Z,2.00
2019-05-02T21:23:44.835Z,1.60
2019-05-02T21:26:04.738Z,2.10
2019-05-02T21:28:32.145Z,1.90
2019-05-02T21:30:57.507Z,1.97
2019-05-02T21:33:23.835Z,1.70
2019-05-02T21:38:16.454Z,2.03
2019-05-02T21:40:42.831Z,1.67
2019-05-02T21:43:09.159Z,1.80
2019-05-02T21:45:35.492Z,2.00
2019-05-02T21:48:02.293Z,1.90
2019-05-02T21:50:28.151Z,1.83
2019-05-02T21:52:54.508Z,1.70
2019-05-02T21:55:21.731Z,1.73
2019-05-02T22:00:13.576Z,1.60
2019-05-02T22:02:39.932Z,1.73
2019-05-02T22:05:06.312Z,1.80
2019-05-02T22:07:32.642Z,1.90
2019-05-02T22:09:59.020Z,1.83
2019-05-02T22:12:25.321Z,1.90
2019-05-02T22:14:52.874Z,1.87
2019-05-02T22:17:18.005Z,1.60
2019-05-02T22:19:44.327Z,2.27
2019-05-02T22:22:12.205Z,1.77
2019-05-02T22:24:37.025Z,1.70
2019-05-02T22:27:03.375Z,1.90
2019-05-02T22:29:29.708Z,1.90
2019-05-02T22:31:56.048Z,1.77
2019-05-02T22:34:22.389Z,1.80
2019-05-02T22:36:48.742Z,1.70
2019-05-02T22:39:15.085Z,1.97
2019-05-02T22:41:41.968Z,1.70
2019-05-02T22:44:07.805Z,1.70
2019-05-02T22:46:34.180Z,1.80
2019-05-02T22:49:02.340Z,1.70
2019-05-02T22:51:26.943Z,1.87
2019-05-02T22:56:19.648Z,1.73
2019-05-02T22:58:45.988Z,1.80
2019-05-02T23:01:12.326Z,1.90
2019-05-02T23:03:38.657Z,1.80
2019-05-02T23:06:05.001Z,1.93
2019-05-02T23:08:31.342Z,1.60
2019-05-02T23:10:57.757Z,1.60
2019-05-02T23:13:24.687Z,1.70
2019-05-02T23:15:52.069Z,2.07
2019-05-02T23:18:16.728Z,1.63
2019-05-02T23:20:43.225Z,1.93
2019-05-02T23:23:09.554Z,1.70
2019-05-02T23:25:36.024Z,1.80
2019-05-02T23:28:02.524Z,1.67
2019-05-02T23:30:28.682Z,1.70
2019-05-02T23:32:55.016Z,1.67
2019-05-02T23:35:21.383Z,1.93
2019-05-02T23:40:14.197Z,1.90
2019-05-02T23:42:41.724Z,1.73
2019-05-02T23:45:07.023Z,1.80
2019-05-02T23:47:33.384Z,1.80
2019-05-02T23:49:59.723Z,1.90
2019-05-02T23:52:26.052Z,1.50
2019-05-02T23:54:52.683Z,1.70
2019-05-02T23:57:18.741Z,1.33
2019-05-02T23:59:45.129Z,1.90
